Aviation Digital Data Service (ADDS)

Output produced by METARs form (0342 UTC 20 November 2017)
found at http://aviationweather.gov/adds/metars/
 
KLCH 192328Z 2000/2024 36007KT P6SM BKN250 
     FM200100 VRB03KT P6SM SCT250 
     FM201500 09008KT P6SM SCT250 
     FM202100 17004KT P6SM SCT150